sensor_id;sensor_type;location;lat;lon;timestamp;P1;durP1;ratioP1;P2;durP2;ratioP2
45107;SDS011;30869;51.188;6.556;2022-09-06T00:01:16;13.68;;;2.55;;
45107;SDS011;30869;51.188;6.556;2022-09-06T00:03:51;7.00;;;2.33;;
45107;SDS011;30869;51.188;6.556;2022-09-06T00:06:32;10.02;;;2.20;;
45107;SDS011;30869;51.188;6.556;2022-09-06T00:09:11;2.00;;;1.80;;
45107;SDS011;30869;51.188;6.556;2022-09-06T00:11:57;7.57;;;2.30;;
45107;SDS011;30869;51.188;6.556;2022-09-06T00:14:25;6.82;;;2.28;;
45107;SDS011;30869;51.188;6.556;2022-09-06T00:16:55;3.78;;;2.00;;
45107;SDS011;30869;51.188;6.556;2022-09-06T00:19:28;21.75;;;5.60;;
45107;SDS011;30869;51.188;6.556;2022-09-06T00:21:54;11.52;;;2.53;;
45107;SDS011;30869;51.188;6.556;2022-09-06T00:24:50;6.22;;;2.28;;
45107;SDS011;30869;51.188;6.556;2022-09-06T00:27:16;14.10;;;3.47;;
45107;SDS011;30869;51.188;6.556;2022-09-06T00:29:42;5.55;;;2.72;;
45107;SDS011;30869;51.188;6.556;2022-09-06T00:32:08;10.10;;;2.47;;
45107;SDS011;30869;51.188;6.556;2022-09-06T00:34:34;7.63;;;2.17;;
45107;SDS011;30869;51.188;6.556;2022-09-06T00:37:00;6.95;;;1.98;;
45107;SDS011;30869;51.188;6.556;2022-09-06T00:39:26;7.28;;;2.45;;
45107;SDS011;30869;51.188;6.556;2022-09-06T00:41:53;7.70;;;3.00;;
45107;SDS011;30869;51.188;6.556;2022-09-06T00:44:21;6.38;;;2.97;;
45107;SDS011;30869;51.188;6.556;2022-09-06T00:46:51;2.95;;;1.88;;
45107;SDS011;30869;51.188;6.556;2022-09-06T00:49:25;4.72;;;2.70;;
45107;SDS011;30869;51.188;6.556;2022-09-06T00:52:02;3.97;;;2.40;;
45107;SDS011;30869;51.188;6.556;2022-09-06T00:54:30;8.57;;;2.58;;
45107;SDS011;30869;51.188;6.556;2022-09-06T00:56:57;4.97;;;2.88;;
45107;SDS011;30869;51.188;6.556;2022-09-06T00:59:24;4.72;;;2.20;;
45107;SDS011;30869;51.188;6.556;2022-09-06T01:01:52;3.85;;;2.72;;
45107;SDS011;30869;51.188;6.556;2022-09-06T01:04:18;3.53;;;2.20;;
45107;SDS011;30869;51.188;6.556;2022-09-06T01:06:53;9.88;;;3.30;;
45107;SDS011;30869;51.188;6.556;2022-09-06T01:12:18;1.95;;;1.48;;
45107;SDS011;30869;51.188;6.556;2022-09-06T01:25:58;5.57;;;2.55;;
45107;SDS011;30869;51.188;6.556;2022-09-06T01:28:46;2.08;;;1.88;;
45107;SDS011;30869;51.188;6.556;2022-09-06T01:36:33;5.88;;;2.70;;
45107;SDS011;30869;51.188;6.556;2022-09-06T01:39:14;5.32;;;2.42;;
45107;SDS011;30869;51.188;6.556;2022-09-06T01:41:47;14.18;;;2.80;;
45107;SDS011;30869;51.188;6.556;2022-09-06T01:44:13;7.57;;;2.58;;
45107;SDS011;30869;51.188;6.556;2022-09-06T01:46:50;12.32;;;2.67;;
45107;SDS011;30869;51.188;6.556;2022-09-06T01:52:46;6.18;;;2.30;;
45107;SDS011;30869;51.188;6.556;2022-09-06T01:55:13;2.70;;;1.60;;
45107;SDS011;30869;51.188;6.556;2022-09-06T02:00:19;2.58;;;2.38;;
45107;SDS011;30869;51.188;6.556;2022-09-06T02:03:04;4.07;;;2.13;;
45107;SDS011;30869;51.188;6.556;2022-09-06T02:05:53;2.03;;;1.83;;
45107;SDS011;30869;51.188;6.556;2022-09-06T02:08:35;6.82;;;2.20;;
45107;SDS011;30869;51.188;6.556;2022-09-06T02:11:05;2.47;;;2.17;;
45107;SDS011;30869;51.188;6.556;2022-09-06T02:13:54;3.92;;;2.75;;
45107;SDS011;30869;51.188;6.556;2022-09-06T02:16:25;8.43;;;3.13;;
45107;SDS011;30869;51.188;6.556;2022-09-06T02:19:18;4.15;;;2.40;;
45107;SDS011;30869;51.188;6.556;2022-09-06T02:21:45;2.67;;;1.77;;
45107;SDS011;30869;51.188;6.556;2022-09-06T02:24:20;2.72;;;2.45;;
45107;SDS011;30869;51.188;6.556;2022-09-06T02:26:55;1.85;;;1.75;;
45107;SDS011;30869;51.188;6.556;2022-09-06T02:29:21;12.75;;;3.20;;
45107;SDS011;30869;51.188;6.556;2022-09-06T02:32:13;7.50;;;1.90;;
45107;SDS011;30869;51.188;6.556;2022-09-06T02:35:04;3.17;;;1.98;;
45107;SDS011;30869;51.188;6.556;2022-09-06T02:37:33;5.28;;;3.03;;
45107;SDS011;30869;51.188;6.556;2022-09-06T02:40:00;5.78;;;3.08;;
45107;SDS011;30869;51.188;6.556;2022-09-06T02:42:25;2.95;;;2.47;;
45107;SDS011;30869;51.188;6.556;2022-09-06T02:44:51;1.48;;;1.38;;
45107;SDS011;30869;51.188;6.556;2022-09-06T02:47:17;1.70;;;1.60;;
45107;SDS011;30869;51.188;6.556;2022-09-06T02:49:46;2.03;;;1.70;;
45107;SDS011;30869;51.188;6.556;2022-09-06T02:52:12;1.50;;;1.40;;
45107;SDS011;30869;51.188;6.556;2022-09-06T02:54:37;7.35;;;2.85;;
45107;SDS011;30869;51.188;6.556;2022-09-06T02:57:03;3.25;;;2.50;;
45107;SDS011;30869;51.188;6.556;2022-09-06T02:59:29;5.20;;;3.20;;
45107;SDS011;30869;51.188;6.556;2022-09-06T03:01:56;4.00;;;3.13;;
45107;SDS011;30869;51.188;6.556;2022-09-06T03:04:22;6.10;;;2.95;;
45107;SDS011;30869;51.188;6.556;2022-09-06T03:06:47;4.68;;;3.10;;
45107;SDS011;30869;51.188;6.556;2022-09-06T03:09:13;5.55;;;2.90;;
45107;SDS011;30869;51.188;6.556;2022-09-06T03:11:39;5.68;;;2.28;;
45107;SDS011;30869;51.188;6.556;2022-09-06T03:14:05;3.30;;;1.45;;
45107;SDS011;30869;51.188;6.556;2022-09-06T03:16:31;2.08;;;1.70;;
45107;SDS011;30869;51.188;6.556;2022-09-06T03:18:57;1.50;;;1.40;;
45107;SDS011;30869;51.188;6.556;2022-09-06T03:21:23;1.92;;;1.80;;
45107;SDS011;30869;51.188;6.556;2022-09-06T03:23:49;4.65;;;2.63;;
45107;SDS011;30869;51.188;6.556;2022-09-06T03:26:16;3.30;;;2.28;;
45107;SDS011;30869;51.188;6.556;2022-09-06T03:28:42;2.50;;;2.15;;
45107;SDS011;30869;51.188;6.556;2022-09-06T03:31:08;1.50;;;1.30;;
45107;SDS011;30869;51.188;6.556;2022-09-06T03:33:33;2.33;;;1.55;;
45107;SDS011;30869;51.188;6.556;2022-09-06T03:36:02;1.75;;;1.65;;
45107;SDS011;30869;51.188;6.556;2022-09-06T03:38:28;2.53;;;2.15;;
45107;SDS011;30869;51.188;6.556;2022-09-06T03:40:55;4.65;;;2.88;;
45107;SDS011;30869;51.188;6.556;2022-09-06T03:43:21;1.90;;;1.60;;
45107;SDS011;30869;51.188;6.556;2022-09-06T03:45:52;8.38;;;3.33;;
45107;SDS011;30869;51.188;6.556;2022-09-06T03:48:25;6.80;;;2.10;;
45107;SDS011;30869;51.188;6.556;2022-09-06T03:50:53;2.72;;;1.70;;
45107;SDS011;30869;51.188;6.556;2022-09-06T03:53:21;1.98;;;1.60;;
45107;SDS011;30869;51.188;6.556;2022-09-06T03:55:48;1.40;;;1.30;;
45107;SDS011;30869;51.188;6.556;2022-09-06T03:58:16;3.03;;;1.63;;
45107;SDS011;30869;51.188;6.556;2022-09-06T04:00:46;1.83;;;1.60;;
45107;SDS011;30869;51.188;6.556;2022-09-06T04:03:12;4.88;;;2.42;;
45107;SDS011;30869;51.188;6.556;2022-09-06T04:05:38;2.58;;;1.60;;
45107;SDS011;30869;51.188;6.556;2022-09-06T04:08:04;1.75;;;1.65;;
45107;SDS011;30869;51.188;6.556;2022-09-06T04:10:31;4.43;;;2.88;;
45107;SDS011;30869;51.188;6.556;2022-09-06T04:12:58;1.98;;;1.63;;
45107;SDS011;30869;51.188;6.556;2022-09-06T04:15:33;8.65;;;2.67;;
45107;SDS011;30869;51.188;6.556;2022-09-06T04:22:08;1.73;;;1.63;;
45107;SDS011;30869;51.188;6.556;2022-09-06T04:24:44;6.57;;;3.50;;
45107;SDS011;30869;51.188;6.556;2022-09-06T04:27:38;3.05;;;2.00;;
45107;SDS011;30869;51.188;6.556;2022-09-06T04:30:16;4.85;;;3.03;;
45107;SDS011;30869;51.188;6.556;2022-09-06T04:32:54;4.93;;;2.97;;
45107;SDS011;30869;51.188;6.556;2022-09-06T04:35:33;6.72;;;3.50;;
45107;SDS011;30869;51.188;6.556;2022-09-06T04:38:00;12.45;;;3.88;;
45107;SDS011;30869;51.188;6.556;2022-09-06T04:40:30;3.58;;;2.70;;
45107;SDS011;30869;51.188;6.556;2022-09-06T04:43:00;1.90;;;1.63;;
45107;SDS011;30869;51.188;6.556;2022-09-06T04:45:35;2.40;;;2.03;;
45107;SDS011;30869;51.188;6.556;2022-09-06T04:48:07;8.05;;;3.72;;
45107;SDS011;30869;51.188;6.556;2022-09-06T04:50:55;1.90;;;1.70;;
45107;SDS011;30869;51.188;6.556;2022-09-06T04:53:21;11.18;;;3.95;;
45107;SDS011;30869;51.188;6.556;2022-09-06T04:55:46;17.08;;;4.30;;
45107;SDS011;30869;51.188;6.556;2022-09-06T04:58:12;3.38;;;2.22;;
45107;SDS011;30869;51.188;6.556;2022-09-06T05:00:38;6.35;;;2.17;;
45107;SDS011;30869;51.188;6.556;2022-09-06T05:03:05;3.00;;;1.52;;
45107;SDS011;30869;51.188;6.556;2022-09-06T05:05:31;4.05;;;2.38;;
45107;SDS011;30869;51.188;6.556;2022-09-06T05:07:57;1.58;;;1.48;;
45107;SDS011;30869;51.188;6.556;2022-09-06T05:10:24;3.63;;;1.67;;
45107;SDS011;30869;51.188;6.556;2022-09-06T05:12:52;1.40;;;1.30;;
45107;SDS011;30869;51.188;6.556;2022-09-06T05:15:18;6.45;;;3.78;;
45107;SDS011;30869;51.188;6.556;2022-09-06T05:17:45;4.60;;;2.20;;
45107;SDS011;30869;51.188;6.556;2022-09-06T05:20:11;2.75;;;1.67;;
45107;SDS011;30869;51.188;6.556;2022-09-06T05:22:37;4.32;;;3.13;;
45107;SDS011;30869;51.188;6.556;2022-09-06T05:25:03;3.05;;;2.17;;
45107;SDS011;30869;51.188;6.556;2022-09-06T05:27:30;10.55;;;3.97;;
45107;SDS011;30869;51.188;6.556;2022-09-06T05:29:55;11.98;;;5.20;;
45107;SDS011;30869;51.188;6.556;2022-09-06T05:32:21;13.45;;;4.57;;
45107;SDS011;30869;51.188;6.556;2022-09-06T05:34:47;10.13;;;4.55;;
45107;SDS011;30869;51.188;6.556;2022-09-06T05:37:13;11.60;;;4.57;;
45107;SDS011;30869;51.188;6.556;2022-09-06T05:39:39;6.93;;;3.20;;
45107;SDS011;30869;51.188;6.556;2022-09-06T05:42:05;11.77;;;4.57;;
45107;SDS011;30869;51.188;6.556;2022-09-06T05:44:34;20.02;;;4.47;;
45107;SDS011;30869;51.188;6.556;2022-09-06T05:47:01;7.97;;;3.22;;
45107;SDS011;30869;51.188;6.556;2022-09-06T05:49:28;10.50;;;3.95;;
45107;SDS011;30869;51.188;6.556;2022-09-06T05:51:55;12.05;;;3.63;;
45107;SDS011;30869;51.188;6.556;2022-09-06T05:54:21;7.30;;;4.40;;
45107;SDS011;30869;51.188;6.556;2022-09-06T05:56:47;5.60;;;3.45;;
45107;SDS011;30869;51.188;6.556;2022-09-06T05:59:13;10.07;;;4.63;;
45107;SDS011;30869;51.188;6.556;2022-09-06T06:01:51;7.70;;;4.40;;
45107;SDS011;30869;51.188;6.556;2022-09-06T06:04:18;21.45;;;5.22;;
45107;SDS011;30869;51.188;6.556;2022-09-06T06:06:45;3.83;;;3.05;;
45107;SDS011;30869;51.188;6.556;2022-09-06T06:09:11;13.60;;;5.05;;
45107;SDS011;30869;51.188;6.556;2022-09-06T06:11:38;6.82;;;3.00;;
45107;SDS011;30869;51.188;6.556;2022-09-06T06:14:04;9.88;;;3.67;;
45107;SDS011;30869;51.188;6.556;2022-09-06T06:16:30;12.50;;;5.47;;
45107;SDS011;30869;51.188;6.556;2022-09-06T06:18:56;13.32;;;4.28;;
45107;SDS011;30869;51.188;6.556;2022-09-06T06:21:23;6.00;;;3.28;;
45107;SDS011;30869;51.188;6.556;2022-09-06T06:23:57;7.07;;;2.70;;
45107;SDS011;30869;51.188;6.556;2022-09-06T06:26:28;6.18;;;4.25;;
45107;SDS011;30869;51.188;6.556;2022-09-06T06:28:55;11.93;;;5.85;;
45107;SDS011;30869;51.188;6.556;2022-09-06T06:31:25;12.90;;;5.72;;
45107;SDS011;30869;51.188;6.556;2022-09-06T06:33:52;17.83;;;6.25;;
45107;SDS011;30869;51.188;6.556;2022-09-06T06:38:46;11.20;;;4.60;;
45107;SDS011;30869;51.188;6.556;2022-09-06T06:41:13;10.23;;;6.35;;
45107;SDS011;30869;51.188;6.556;2022-09-06T06:43:41;10.60;;;5.75;;
45107;SDS011;30869;51.188;6.556;2022-09-06T06:46:08;11.35;;;6.57;;
45107;SDS011;30869;51.188;6.556;2022-09-06T06:48:35;17.42;;;8.55;;
45107;SDS011;30869;51.188;6.556;2022-09-06T06:51:02;13.98;;;8.38;;
45107;SDS011;30869;51.188;6.556;2022-09-06T06:53:28;19.85;;;9.43;;
45107;SDS011;30869;51.188;6.556;2022-09-06T06:55:54;11.50;;;6.80;;
45107;SDS011;30869;51.188;6.556;2022-09-06T06:58:19;16.85;;;9.10;;
45107;SDS011;30869;51.188;6.556;2022-09-06T07:00:45;11.45;;;6.70;;
45107;SDS011;30869;51.188;6.556;2022-09-06T07:03:11;6.93;;;3.47;;
45107;SDS011;30869;51.188;6.556;2022-09-06T07:05:37;23.23;;;9.80;;
45107;SDS011;30869;51.188;6.556;2022-09-06T07:08:08;4.53;;;2.97;;
45107;SDS011;30869;51.188;6.556;2022-09-06T07:10:34;12.30;;;6.57;;
45107;SDS011;30869;51.188;6.556;2022-09-06T07:13:00;15.50;;;9.07;;
45107;SDS011;30869;51.188;6.556;2022-09-06T07:15:26;13.55;;;6.10;;
45107;SDS011;30869;51.188;6.556;2022-09-06T07:17:55;20.67;;;7.50;;
45107;SDS011;30869;51.188;6.556;2022-09-06T07:20:21;11.23;;;7.70;;
45107;SDS011;30869;51.188;6.556;2022-09-06T07:22:56;7.88;;;5.03;;
45107;SDS011;30869;51.188;6.556;2022-09-06T07:25:27;19.35;;;8.45;;
45107;SDS011;30869;51.188;6.556;2022-09-06T07:27:59;7.05;;;5.43;;
45107;SDS011;30869;51.188;6.556;2022-09-06T07:30:35;11.90;;;6.20;;
45107;SDS011;30869;51.188;6.556;2022-09-06T07:33:03;11.32;;;6.07;;
45107;SDS011;30869;51.188;6.556;2022-09-06T07:35:33;8.75;;;4.75;;
45107;SDS011;30869;51.188;6.556;2022-09-06T07:38:24;3.75;;;2.65;;
45107;SDS011;30869;51.188;6.556;2022-09-06T07:40:59;5.68;;;3.72;;
45107;SDS011;30869;51.188;6.556;2022-09-06T07:43:29;8.43;;;4.72;;
45107;SDS011;30869;51.188;6.556;2022-09-06T07:48:46;8.23;;;3.72;;
45107;SDS011;30869;51.188;6.556;2022-09-06T07:51:18;7.85;;;4.22;;
45107;SDS011;30869;51.188;6.556;2022-09-06T07:53:52;6.03;;;3.00;;
45107;SDS011;30869;51.188;6.556;2022-09-06T07:56:20;8.27;;;3.90;;
45107;SDS011;30869;51.188;6.556;2022-09-06T07:58:46;4.45;;;3.40;;
45107;SDS011;30869;51.188;6.556;2022-09-06T08:01:17;3.67;;;2.90;;
45107;SDS011;30869;51.188;6.556;2022-09-06T08:03:50;6.65;;;3.63;;
45107;SDS011;30869;51.188;6.556;2022-09-06T08:06:17;7.22;;;4.50;;
45107;SDS011;30869;51.188;6.556;2022-09-06T08:08:44;10.88;;;4.55;;
45107;SDS011;30869;51.188;6.556;2022-09-06T08:11:13;3.72;;;3.20;;
45107;SDS011;30869;51.188;6.556;2022-09-06T08:13:43;7.55;;;4.07;;
45107;SDS011;30869;51.188;6.556;2022-09-06T08:16:12;7.68;;;3.30;;
45107;SDS011;30869;51.188;6.556;2022-09-06T08:18:39;6.95;;;4.00;;
45107;SDS011;30869;51.188;6.556;2022-09-06T08:21:06;7.10;;;3.10;;
45107;SDS011;30869;51.188;6.556;2022-09-06T08:23:34;4.53;;;3.70;;
45107;SDS011;30869;51.188;6.556;2022-09-06T08:26:00;3.22;;;2.80;;
45107;SDS011;30869;51.188;6.556;2022-09-06T08:28:30;5.72;;;3.17;;
45107;SDS011;30869;51.188;6.556;2022-09-06T08:31:03;9.40;;;4.03;;
45107;SDS011;30869;51.188;6.556;2022-09-06T08:33:30;10.63;;;5.13;;
45107;SDS011;30869;51.188;6.556;2022-09-06T08:36:17;9.13;;;3.50;;
45107;SDS011;30869;51.188;6.556;2022-09-06T08:38:57;9.73;;;3.35;;
45107;SDS011;30869;51.188;6.556;2022-09-06T08:44:02;3.97;;;2.80;;
45107;SDS011;30869;51.188;6.556;2022-09-06T08:46:37;6.40;;;2.72;;
45107;SDS011;30869;51.188;6.556;2022-09-06T08:49:06;5.88;;;3.40;;
45107;SDS011;30869;51.188;6.556;2022-09-06T08:54:16;4.22;;;2.70;;
45107;SDS011;30869;51.188;6.556;2022-09-06T08:59:27;5.95;;;2.78;;
45107;SDS011;30869;51.188;6.556;2022-09-06T09:02:11;6.25;;;2.60;;
45107;SDS011;30869;51.188;6.556;2022-09-06T09:04:58;5.90;;;2.65;;
45107;SDS011;30869;51.188;6.556;2022-09-06T09:07:49;2.83;;;2.03;;
45107;SDS011;30869;51.188;6.556;2022-09-06T09:10:44;3.65;;;2.20;;
45107;SDS011;30869;51.188;6.556;2022-09-06T09:13:16;4.32;;;2.33;;
45107;SDS011;30869;51.188;6.556;2022-09-06T09:15:53;4.20;;;2.50;;
45107;SDS011;30869;51.188;6.556;2022-09-06T09:18:21;2.80;;;2.42;;
45107;SDS011;30869;51.188;6.556;2022-09-06T09:20:50;3.17;;;2.53;;
45107;SDS011;30869;51.188;6.556;2022-09-06T09:23:23;4.40;;;2.53;;
45107;SDS011;30869;51.188;6.556;2022-09-06T09:25:55;2.60;;;1.88;;
45107;SDS011;30869;51.188;6.556;2022-09-06T09:28:29;10.88;;;2.38;;
45107;SDS011;30869;51.188;6.556;2022-09-06T09:31:02;4.63;;;2.83;;
45107;SDS011;30869;51.188;6.556;2022-09-06T09:33:35;7.80;;;2.90;;
45107;SDS011;30869;51.188;6.556;2022-09-06T09:36:05;5.72;;;2.95;;
45107;SDS011;30869;51.188;6.556;2022-09-06T09:38:43;4.80;;;2.65;;
45107;SDS011;30869;51.188;6.556;2022-09-06T09:41:28;2.50;;;2.30;;
45107;SDS011;30869;51.188;6.556;2022-09-06T09:44:15;7.20;;;2.25;;
45107;SDS011;30869;51.188;6.556;2022-09-06T09:46:43;5.57;;;2.20;;
45107;SDS011;30869;51.188;6.556;2022-09-06T09:52:06;7.00;;;2.53;;
45107;SDS011;30869;51.188;6.556;2022-09-06T09:54:41;3.58;;;2.10;;
45107;SDS011;30869;51.188;6.556;2022-09-06T09:57:13;10.45;;;3.67;;
45107;SDS011;30869;51.188;6.556;2022-09-06T10:00:00;6.60;;;2.60;;
45107;SDS011;30869;51.188;6.556;2022-09-06T10:02:38;4.80;;;2.58;;
45107;SDS011;30869;51.188;6.556;2022-09-06T10:07:54;4.30;;;2.10;;
45107;SDS011;30869;51.188;6.556;2022-09-06T10:10:45;8.80;;;2.35;;
45107;SDS011;30869;51.188;6.556;2022-09-06T10:13:24;5.53;;;2.38;;
45107;SDS011;30869;51.188;6.556;2022-09-06T10:15:55;6.43;;;2.40;;
45107;SDS011;30869;51.188;6.556;2022-09-06T10:21:13;2.10;;;1.92;;
45107;SDS011;30869;51.188;6.556;2022-09-06T10:26:51;3.20;;;2.38;;
45107;SDS011;30869;51.188;6.556;2022-09-06T10:29:34;2.40;;;2.20;;
45107;SDS011;30869;51.188;6.556;2022-09-06T10:35:14;2.83;;;2.10;;
45107;SDS011;30869;51.188;6.556;2022-09-06T10:46:46;5.68;;;1.70;;
45107;SDS011;30869;51.188;6.556;2022-09-06T10:49:17;2.78;;;1.77;;
45107;SDS011;30869;51.188;6.556;2022-09-06T10:51:57;8.55;;;2.15;;
45107;SDS011;30869;51.188;6.556;2022-09-06T10:54:36;3.15;;;2.10;;
45107;SDS011;30869;51.188;6.556;2022-09-06T10:57:16;4.53;;;2.13;;
45107;SDS011;30869;51.188;6.556;2022-09-06T11:00:00;8.85;;;1.52;;
45107;SDS011;30869;51.188;6.556;2022-09-06T11:05:34;2.58;;;1.70;;
45107;SDS011;30869;51.188;6.556;2022-09-06T11:08:22;7.65;;;1.45;;
45107;SDS011;30869;51.188;6.556;2022-09-06T11:10:58;3.75;;;1.85;;
45107;SDS011;30869;51.188;6.556;2022-09-06T11:13:36;2.45;;;1.70;;
45107;SDS011;30869;51.188;6.556;2022-09-06T11:16:06;5.68;;;1.50;;
45107;SDS011;30869;51.188;6.556;2022-09-06T11:19:16;2.97;;;1.33;;
45107;SDS011;30869;51.188;6.556;2022-09-06T11:28:12;6.55;;;2.28;;
45107;SDS011;30869;51.188;6.556;2022-09-06T11:30:53;6.38;;;1.83;;
45107;SDS011;30869;51.188;6.556;2022-09-06T11:33:43;7.82;;;1.60;;
45107;SDS011;30869;51.188;6.556;2022-09-06T11:36:54;9.48;;;2.38;;
45107;SDS011;30869;51.188;6.556;2022-09-06T11:39:35;4.75;;;2.10;;
45107;SDS011;30869;51.188;6.556;2022-09-06T11:45:19;7.32;;;2.55;;
45107;SDS011;30869;51.188;6.556;2022-09-06T11:51:03;9.07;;;1.70;;
45107;SDS011;30869;51.188;6.556;2022-09-06T11:56:31;6.78;;;1.75;;
45107;SDS011;30869;51.188;6.556;2022-09-06T11:59:19;3.47;;;2.03;;
45107;SDS011;30869;51.188;6.556;2022-09-06T12:07:32;10.95;;;2.13;;
45107;SDS011;30869;51.188;6.556;2022-09-06T12:16:04;5.93;;;1.60;;
45107;SDS011;30869;51.188;6.556;2022-09-06T12:24:49;6.20;;;1.90;;
45107;SDS011;30869;51.188;6.556;2022-09-06T12:30:12;4.03;;;1.63;;
45107;SDS011;30869;51.188;6.556;2022-09-06T12:32:55;1.80;;;1.70;;
45107;SDS011;30869;51.188;6.556;2022-09-06T12:35:26;5.90;;;1.80;;
45107;SDS011;30869;51.188;6.556;2022-09-06T12:37:55;2.42;;;1.48;;
45107;SDS011;30869;51.188;6.556;2022-09-06T12:40:27;2.65;;;1.65;;
45107;SDS011;30869;51.188;6.556;2022-09-06T12:42:55;2.95;;;1.40;;
45107;SDS011;30869;51.188;6.556;2022-09-06T12:45:25;4.10;;;1.60;;
45107;SDS011;30869;51.188;6.556;2022-09-06T12:48:02;9.10;;;1.60;;
45107;SDS011;30869;51.188;6.556;2022-09-06T12:50:35;3.05;;;1.45;;
45107;SDS011;30869;51.188;6.556;2022-09-06T12:53:03;6.40;;;1.50;;
45107;SDS011;30869;51.188;6.556;2022-09-06T12:56:04;2.08;;;1.45;;
45107;SDS011;30869;51.188;6.556;2022-09-06T12:58:32;3.47;;;2.08;;
45107;SDS011;30869;51.188;6.556;2022-09-06T13:01:09;4.82;;;1.38;;
45107;SDS011;30869;51.188;6.556;2022-09-06T13:03:44;6.00;;;1.52;;
45107;SDS011;30869;51.188;6.556;2022-09-06T13:06:29;1.95;;;1.00;;
45107;SDS011;30869;51.188;6.556;2022-09-06T13:09:02;14.98;;;1.70;;
45107;SDS011;30869;51.188;6.556;2022-09-06T13:11:30;4.05;;;1.55;;
45107;SDS011;30869;51.188;6.556;2022-09-06T13:13:59;5.30;;;1.20;;
45107;SDS011;30869;51.188;6.556;2022-09-06T13:16:35;4.88;;;1.30;;
45107;SDS011;30869;51.188;6.556;2022-09-06T13:19:12;1.38;;;1.17;;
45107;SDS011;30869;51.188;6.556;2022-09-06T13:21:40;2.95;;;1.50;;
45107;SDS011;30869;51.188;6.556;2022-09-06T13:24:20;3.60;;;1.48;;
45107;SDS011;30869;51.188;6.556;2022-09-06T13:32:33;4.38;;;1.20;;
45107;SDS011;30869;51.188;6.556;2022-09-06T13:35:01;1.70;;;1.13;;
45107;SDS011;30869;51.188;6.556;2022-09-06T13:37:28;2.67;;;1.38;;
45107;SDS011;30869;51.188;6.556;2022-09-06T13:39:56;2.83;;;1.17;;
45107;SDS011;30869;51.188;6.556;2022-09-06T13:42:29;2.90;;;1.20;;
45107;SDS011;30869;51.188;6.556;2022-09-06T13:44:57;3.35;;;1.27;;
45107;SDS011;30869;51.188;6.556;2022-09-06T13:47:40;1.77;;;1.23;;
45107;SDS011;30869;51.188;6.556;2022-09-06T13:50:09;2.55;;;1.33;;
45107;SDS011;30869;51.188;6.556;2022-09-06T13:52:35;5.03;;;1.27;;
45107;SDS011;30869;51.188;6.556;2022-09-06T13:55:01;3.33;;;1.17;;
45107;SDS011;30869;51.188;6.556;2022-09-06T13:57:35;8.15;;;1.55;;
45107;SDS011;30869;51.188;6.556;2022-09-06T14:00:01;7.07;;;1.33;;
45107;SDS011;30869;51.188;6.556;2022-09-06T14:02:27;2.05;;;1.55;;
45107;SDS011;30869;51.188;6.556;2022-09-06T14:04:55;5.20;;;1.33;;
45107;SDS011;30869;51.188;6.556;2022-09-06T14:07:21;2.47;;;1.15;;
45107;SDS011;30869;51.188;6.556;2022-09-06T14:09:47;5.20;;;1.33;;
45107;SDS011;30869;51.188;6.556;2022-09-06T14:12:20;3.25;;;1.10;;
45107;SDS011;30869;51.188;6.556;2022-09-06T14:14:46;2.15;;;1.27;;
45107;SDS011;30869;51.188;6.556;2022-09-06T14:17:12;3.60;;;1.35;;
45107;SDS011;30869;51.188;6.556;2022-09-06T14:19:44;2.67;;;1.48;;
45107;SDS011;30869;51.188;6.556;2022-09-06T14:22:11;3.95;;;1.33;;
45107;SDS011;30869;51.188;6.556;2022-09-06T14:24:40;2.05;;;1.33;;
45107;SDS011;30869;51.188;6.556;2022-09-06T14:27:05;1.20;;;1.10;;
45107;SDS011;30869;51.188;6.556;2022-09-06T14:29:32;6.15;;;1.27;;
45107;SDS011;30869;51.188;6.556;2022-09-06T14:32:04;8.00;;;1.30;;
45107;SDS011;30869;51.188;6.556;2022-09-06T14:34:33;3.83;;;1.27;;
45107;SDS011;30869;51.188;6.556;2022-09-06T14:36:59;3.97;;;1.25;;
45107;SDS011;30869;51.188;6.556;2022-09-06T14:39:25;2.72;;;1.10;;
45107;SDS011;30869;51.188;6.556;2022-09-06T14:41:57;3.80;;;1.27;;
45107;SDS011;30869;51.188;6.556;2022-09-06T14:44:26;1.40;;;1.10;;
45107;SDS011;30869;51.188;6.556;2022-09-06T14:46:55;1.27;;;1.17;;
45107;SDS011;30869;51.188;6.556;2022-09-06T14:49:22;4.38;;;1.48;;
45107;SDS011;30869;51.188;6.556;2022-09-06T14:51:58;4.28;;;1.20;;
45107;SDS011;30869;51.188;6.556;2022-09-06T14:54:24;8.43;;;1.40;;
45107;SDS011;30869;51.188;6.556;2022-09-06T14:56:59;3.03;;;0.93;;
45107;SDS011;30869;51.188;6.556;2022-09-06T14:59:34;3.35;;;0.95;;
45107;SDS011;30869;51.188;6.556;2022-09-06T15:02:04;1.55;;;1.10;;
45107;SDS011;30869;51.188;6.556;2022-09-06T15:04:35;2.85;;;1.25;;
45107;SDS011;30869;51.188;6.556;2022-09-06T15:07:07;2.28;;;1.08;;
45107;SDS011;30869;51.188;6.556;2022-09-06T15:09:34;2.08;;;1.17;;
45107;SDS011;30869;51.188;6.556;2022-09-06T15:12:00;2.20;;;1.17;;
45107;SDS011;30869;51.188;6.556;2022-09-06T15:14:29;1.33;;;0.80;;
45107;SDS011;30869;51.188;6.556;2022-09-06T15:16:56;2.10;;;1.00;;
45107;SDS011;30869;51.188;6.556;2022-09-06T15:19:29;3.33;;;1.17;;
45107;SDS011;30869;51.188;6.556;2022-09-06T15:22:03;1.67;;;1.10;;
45107;SDS011;30869;51.188;6.556;2022-09-06T15:24:33;2.88;;;1.23;;
45107;SDS011;30869;51.188;6.556;2022-09-06T15:27:00;1.33;;;1.17;;
45107;SDS011;30869;51.188;6.556;2022-09-06T15:29:34;5.82;;;1.55;;
45107;SDS011;30869;51.188;6.556;2022-09-06T15:32:01;3.75;;;1.38;;
45107;SDS011;30869;51.188;6.556;2022-09-06T15:34:32;1.10;;;1.02;;
45107;SDS011;30869;51.188;6.556;2022-09-06T15:37:03;3.63;;;0.90;;
45107;SDS011;30869;51.188;6.556;2022-09-06T15:39:32;3.90;;;1.50;;
45107;SDS011;30869;51.188;6.556;2022-09-06T15:42:00;5.63;;;1.30;;
45107;SDS011;30869;51.188;6.556;2022-09-06T15:44:27;3.75;;;1.45;;
45107;SDS011;30869;51.188;6.556;2022-09-06T15:47:00;1.65;;;0.95;;
45107;SDS011;30869;51.188;6.556;2022-09-06T15:49:34;2.08;;;1.10;;
45107;SDS011;30869;51.188;6.556;2022-09-06T15:52:02;1.23;;;0.80;;
45107;SDS011;30869;51.188;6.556;2022-09-06T15:54:31;2.63;;;1.00;;
45107;SDS011;30869;51.188;6.556;2022-09-06T15:57:16;9.63;;;1.20;;
45107;SDS011;30869;51.188;6.556;2022-09-06T15:59:46;5.30;;;1.20;;
45107;SDS011;30869;51.188;6.556;2022-09-06T16:02:14;3.63;;;1.80;;
45107;SDS011;30869;51.188;6.556;2022-09-06T16:04:40;1.25;;;1.15;;
45107;SDS011;30869;51.188;6.556;2022-09-06T16:07:06;2.17;;;1.00;;
45107;SDS011;30869;51.188;6.556;2022-09-06T16:09:36;2.42;;;1.17;;
45107;SDS011;30869;51.188;6.556;2022-09-06T16:12:10;2.35;;;1.27;;
45107;SDS011;30869;51.188;6.556;2022-09-06T16:14:36;2.65;;;1.10;;
45107;SDS011;30869;51.188;6.556;2022-09-06T16:17:10;3.15;;;1.42;;
45107;SDS011;30869;51.188;6.556;2022-09-06T16:19:36;6.28;;;2.30;;
45107;SDS011;30869;51.188;6.556;2022-09-06T16:22:02;4.32;;;1.42;;
45107;SDS011;30869;51.188;6.556;2022-09-06T16:24:28;4.47;;;1.33;;
45107;SDS011;30869;51.188;6.556;2022-09-06T16:26:54;1.85;;;1.27;;
45107;SDS011;30869;51.188;6.556;2022-09-06T16:29:20;3.15;;;1.10;;
45107;SDS011;30869;51.188;6.556;2022-09-06T16:31:46;1.63;;;1.17;;
45107;SDS011;30869;51.188;6.556;2022-09-06T16:34:12;5.22;;;1.00;;
45107;SDS011;30869;51.188;6.556;2022-09-06T16:36:40;2.45;;;1.48;;
45107;SDS011;30869;51.188;6.556;2022-09-06T16:39:06;4.07;;;1.30;;
45107;SDS011;30869;51.188;6.556;2022-09-06T16:41:39;4.20;;;1.40;;
45107;SDS011;30869;51.188;6.556;2022-09-06T16:44:16;1.40;;;1.30;;
45107;SDS011;30869;51.188;6.556;2022-09-06T16:46:46;3.90;;;1.77;;
45107;SDS011;30869;51.188;6.556;2022-09-06T16:49:14;6.80;;;1.33;;
45107;SDS011;30869;51.188;6.556;2022-09-06T16:51:41;1.83;;;1.50;;
45107;SDS011;30869;51.188;6.556;2022-09-06T16:54:07;2.90;;;1.50;;
45107;SDS011;30869;51.188;6.556;2022-09-06T16:56:33;1.45;;;1.35;;
45107;SDS011;30869;51.188;6.556;2022-09-06T16:59:01;3.85;;;2.65;;
45107;SDS011;30869;51.188;6.556;2022-09-06T17:03:58;3.63;;;1.10;;